createdAt,value
2023-03-16T00:03:08.289Z,23.4
2023-03-16T00:09:02.090Z,22.9
2023-03-16T00:14:40.486Z,22.4
2023-03-16T00:20:19.014Z,22.1
2023-03-16T00:25:56.111Z,26.3
2023-03-16T00:31:19.442Z,28.9
2023-03-16T00:37:12.886Z,27.1
2023-03-16T00:43:05.185Z,26.1
2023-03-16T00:48:43.734Z,24.3
2023-03-16T00:54:21.548Z,23.8
2023-03-16T01:00:14.526Z,23.1
2023-03-16T01:05:52.329Z,22.6
2023-03-16T01:11:29.722Z,22.3
2023-03-16T01:16:50.901Z,25.9
2023-03-16T01:21:56.948Z,28.6
2023-03-16T01:27:49.300Z,27.6
2023-03-16T01:33:27.644Z,26.2
2023-03-16T01:39:20.373Z,24.5
2023-03-16T01:45:13.087Z,24
2023-03-16T01:50:21.509Z,23.1
2023-03-16T01:56:14.276Z,22.9
2023-03-16T02:01:52.457Z,22.3
2023-03-16T02:06:59.537Z,23.9
2023-03-16T02:12:53.548Z,27.8
2023-03-16T02:18:47.236Z,21.8
2023-03-16T02:24:24.828Z,21.7
2023-03-16T02:30:17.991Z,27.4
2023-03-16T02:36:11.967Z,28.9
2023-03-16T02:41:49.552Z,26.3
2023-03-16T02:47:28.265Z,24.8
2023-03-16T02:53:21.381Z,24.1
2023-03-16T02:58:58.884Z,23.2
2023-03-16T03:04:08.000Z,22.9
2023-03-16T03:10:00.747Z,22.4
2023-03-16T03:15:52.461Z,23.1
2023-03-16T03:21:45.064Z,27.8
2023-03-16T03:27:22.659Z,28.8
2023-03-16T03:33:15.236Z,26.3
2023-03-16T03:38:38.130Z,24.9
2023-03-16T03:44:15.353Z,24.1
2023-03-16T03:49:37.736Z,23.3
2023-03-16T03:54:59.577Z,22.9
2023-03-16T04:00:39.867Z,22.4
2023-03-16T04:06:33.620Z,22.1
2023-03-16T04:12:11.392Z,27.1
2023-03-16T04:18:04.374Z,29.1
2023-03-16T04:23:26.365Z,26.6
2023-03-16T04:28:49.482Z,25.9
2023-03-16T04:34:27.064Z,24.3
2023-03-16T04:40:04.575Z,23.7
2023-03-16T04:45:57.794Z,23
2023-03-16T04:51:20.324Z,22.6
2023-03-16T04:57:13.762Z,22.3
2023-03-16T05:03:07.234Z,26.4
2023-03-16T05:09:05.638Z,28.7
2023-03-16T05:14:11.591Z,27
2023-03-16T05:20:05.363Z,26.1
2023-03-16T05:25:57.937Z,24.5
2023-03-16T05:31:20.703Z,24
2023-03-16T05:37:02.336Z,23.1
2023-03-16T05:42:54.473Z,22.8
2023-03-16T05:48:32.953Z,22.3
2023-03-16T05:54:11.527Z,25.2
2023-03-16T06:00:05.261Z,27.9
2023-03-16T06:05:59.025Z,25
2023-03-16T06:11:52.923Z,17.7
2023-03-16T06:17:45.250Z,24.1
2023-03-16T06:23:36.944Z,28.1
2023-03-16T06:29:32.466Z,28
2023-03-16T06:35:27.779Z,26.3
2023-03-16T06:41:20.732Z,24.6
2023-03-16T06:47:01.714Z,24
2023-03-16T06:52:55.887Z,23.1
2023-03-16T06:58:32.917Z,22.8
2023-03-16T07:04:26.143Z,22.3
2023-03-16T07:10:18.868Z,25.9
2023-03-16T07:16:15.585Z,28.6
2023-03-16T07:22:10.071Z,27.2
2023-03-16T07:28:03.064Z,26.1
2023-03-16T07:34:17.534Z,24.4
2023-03-16T07:39:55.880Z,23.8
2023-03-16T07:45:32.860Z,23.1
2023-03-16T07:51:09.612Z,22.6
2023-03-16T07:57:20.540Z,22.3
2023-03-16T08:03:14.483Z,26.8
2023-03-16T08:09:07.477Z,29.1
2023-03-16T08:14:48.812Z,26.8
2023-03-16T08:20:41.828Z,26
2023-03-16T08:26:46.617Z,24.2
2023-03-16T08:32:41.378Z,23.5
2023-03-16T08:38:04.509Z,22.9
2023-03-16T08:43:53.657Z,24.6
2023-03-16T08:49:32.326Z,28.1
2023-03-16T08:55:35.965Z,28.4
2023-03-16T09:01:41.248Z,26.3
2023-03-16T09:07:42.601Z,24.6
2023-03-16T09:13:20.656Z,24.1
2023-03-16T09:19:13.531Z,23.1
2023-03-16T09:25:09.416Z,22.8
2023-03-16T09:31:06.199Z,27.6
2023-03-16T09:36:45.180Z,29.5
2023-03-16T09:42:42.333Z,26.2
2023-03-16T09:48:19.574Z,24.5
2023-03-16T09:53:35.123Z,23.7
2023-03-16T09:59:12.251Z,23
2023-03-16T10:05:05.752Z,22.6
2023-03-16T10:10:57.442Z,25.9
2023-03-16T10:16:50.825Z,28.7
2023-03-16T10:22:43.542Z,27
2023-03-16T10:28:19.941Z,25.8
2023-03-16T10:34:00.518Z,23.9
2023-03-16T10:39:53.952Z,23.5
2023-03-16T10:45:47.864Z,22.7
2023-03-16T10:51:42.125Z,22.4
2023-03-16T10:57:35.722Z,27.6
2023-03-16T11:03:28.561Z,29.3
2023-03-16T11:09:22.735Z,26.1
2023-03-16T11:15:40.111Z,24.3
2023-03-16T11:21:33.131Z,23.5
2023-03-16T11:27:25.272Z,22.8
2023-03-16T11:33:21.211Z,22.5
2023-03-16T11:39:15.330Z,27.4
2023-03-16T11:45:07.837Z,29.4
2023-03-16T11:51:00.513Z,26.5
2023-03-16T11:56:52.651Z,25.1
2023-03-16T12:02:50.036Z,24.1
2023-03-16T12:08:37.603Z,23.3
2023-03-16T12:14:30.546Z,22.8
2023-03-16T12:20:40.426Z,26.4
2023-03-16T12:26:33.712Z,29.1
2023-03-16T12:32:10.914Z,26.8
2023-03-16T12:38:03.422Z,25.9
2023-03-16T12:43:56.080Z,24.2
2023-03-16T12:49:33.393Z,23.5
2023-03-16T12:55:13.673Z,22.9
2023-03-16T13:00:36.185Z,24.7
2023-03-16T13:06:15.323Z,28
2023-03-16T13:11:56.556Z,28.4
2023-03-16T13:17:37.868Z,26.3
2023-03-16T13:23:47.550Z,24.7
2023-03-16T13:29:25.499Z,24
2023-03-16T13:34:32.425Z,23.1
2023-03-16T13:39:54.981Z,22.9
2023-03-16T13:45:36.506Z,22.8
2023-03-16T13:51:13.293Z,22.6
2023-03-16T13:56:50.004Z,22.4
2023-03-16T14:02:28.146Z,22.3
2023-03-16T14:08:06.099Z,22.1
2023-03-16T14:14:03.236Z,21.9
2023-03-16T14:20:00.923Z,21.8
2023-03-16T14:26:01.522Z,25.9
2023-03-16T14:31:55.033Z,33.9
2023-03-16T14:37:33.752Z,36.1
2023-03-16T14:43:27.403Z,38.8
2023-03-16T14:49:20.784Z,39.5
2023-03-16T14:54:58.250Z,37.8
2023-03-16T15:01:08.523Z,36.8
2023-03-16T15:07:02.701Z,40
2023-03-16T15:12:57.435Z,38.9
2023-03-16T15:18:35.215Z,41.9
2023-03-16T15:24:27.042Z,42.3
2023-03-16T15:30:05.077Z,42.3
2023-03-16T15:35:42.625Z,42.3
2023-03-16T15:41:46.999Z,42.4
2023-03-16T15:47:40.335Z,39.4
2023-03-16T15:53:47.444Z,38
2023-03-16T15:59:54.795Z,39.8
2023-03-16T16:05:32.157Z,38.6
2023-03-16T16:10:53.586Z,41.5
2023-03-16T16:16:46.016Z,42
2023-03-16T16:22:52.122Z,40.3
2023-03-16T16:28:44.611Z,37.8
2023-03-16T16:33:52.195Z,39.4
2023-03-16T16:39:10.740Z,37.1
2023-03-16T16:44:02.400Z,37
2023-03-16T16:49:10.151Z,36.8
2023-03-16T16:54:32.230Z,36.6
2023-03-16T17:00:21.093Z,39.2
2023-03-16T17:05:30.230Z,40.4
2023-03-16T17:10:52.879Z,37.9
2023-03-16T17:16:16.639Z,38.6
2023-03-16T17:22:09.663Z,37.1
2023-03-16T17:27:32.360Z,37
2023-03-16T17:33:11.128Z,38.3
2023-03-16T17:38:49.406Z,39.4
2023-03-16T17:44:32.843Z,37.4
2023-03-16T17:50:25.813Z,37.1
2023-03-16T17:56:18.680Z,37.1
2023-03-16T18:01:41.194Z,37.1
2023-03-16T18:07:37.327Z,40
2023-03-16T18:13:15.014Z,38.3
2023-03-16T18:18:38.246Z,38.6
2023-03-16T18:24:16.085Z,37.2
2023-03-16T18:30:11.087Z,37.4
2023-03-16T18:36:04.486Z,39.3
2023-03-16T18:41:42.423Z,37.7
2023-03-16T18:47:35.614Z,39.1
2023-03-16T18:53:13.597Z,37.6
2023-03-16T18:58:51.643Z,37.9
2023-03-16T19:03:57.689Z,37.4
2023-03-16T19:09:22.475Z,38.4
2023-03-16T19:15:00.850Z,38.4
2023-03-16T19:20:38.174Z,40
2023-03-16T19:26:00.420Z,37.8
2023-03-16T19:31:38.931Z,37.4
2023-03-16T19:37:29.953Z,37
2023-03-16T19:43:07.640Z,36.9
2023-03-16T19:49:01.407Z,38.1
2023-03-16T19:54:53.664Z,37.3
2023-03-16T20:00:46.673Z,41.2
2023-03-16T20:06:40.846Z,41.8
2023-03-16T20:12:18.792Z,39.8
2023-03-16T20:17:57.131Z,38.8
2023-03-16T20:23:19.586Z,37.1
2023-03-16T20:28:56.548Z,37
2023-03-16T20:34:49.741Z,37.8
2023-03-16T20:40:28.319Z,36.5
2023-03-16T20:46:06.473Z,36.4
2023-03-16T20:51:27.802Z,35.9
2023-03-16T20:57:05.492Z,35.4
2023-03-16T21:02:58.730Z,34.8
2023-03-16T21:08:51.976Z,33.8
2023-03-16T21:14:38.653Z,32.8
2023-03-16T21:20:16.536Z,32
2023-03-16T21:26:09.754Z,31.2
2023-03-16T21:32:03.452Z,30.9
2023-03-16T21:37:56.204Z,30.7
2023-03-16T21:43:51.073Z,30.3
2023-03-16T21:49:44.804Z,29.8
2023-03-16T21:55:23.755Z,29.1
2023-03-16T22:00:47.436Z,26.9
2023-03-16T22:07:08.626Z,25.9
2023-03-16T22:12:46.033Z,25.1
2023-03-16T22:18:39.085Z,24.6
2023-03-16T22:24:17.169Z,23.9
2023-03-16T22:29:54.652Z,23.6
2023-03-16T22:35:47.229Z,23.3
2023-03-16T22:41:40.320Z,23.1
2023-03-16T22:47:16.784Z,22.8
2023-03-16T22:53:09.928Z,22.6
2023-03-16T22:59:03.599Z,28.5
2023-03-16T23:04:57.422Z,27.5
2023-03-16T23:10:50.545Z,26.6
2023-03-16T23:16:30.480Z,25.3
2023-03-16T23:22:36.918Z,24.8
2023-03-16T23:28:21.570Z,24.1
2023-03-16T23:34:00.135Z,23.7
2023-03-16T23:39:37.034Z,23.4
2023-03-16T23:45:14.796Z,23.1
2023-03-16T23:50:52.682Z,22.9
2023-03-16T23:56:29.535Z,26.5
